Alsea, Oregon
Current Conditions -  °F | °C
As of 2:35 PM on Monday 20 Oct 2014 (Local Time) from KCVO Reporting Station
Broken Clouds Broken Clouds  
Wind Chill: 17°   Ceiling: 4600
Heat Index: 17°   Visibility: 10mi
Dew Point: 13°   Wind: 6mph
Humidity: 77%   Direction: 240°WSW
Pressure: 29.82"   Gusts: NA
Location:  44.38°N, 123.6°W
Report Text: KCVO 202135Z AUTO 24005KT 10SM SCT028 SCT038 BKN046 17/13 A2982 RMK AO1
Loading
Personal Weather Stations






























Interactive Weather Map
Tropical Storm Tracking
New forecast layout! Learn more

10-Day Weather Forecast

Advertisements
Track Severe Weather on mobile